sensor_id;sensor_type;location;lat;lon;timestamp;temperature;humidity
41471;DHT22;27211;51.220;5.308;2022-10-22T18:43:30;16.10;99.90
41471;DHT22;27211;51.220;5.308;2022-10-22T18:45:56;16.00;99.90
41471;DHT22;27211;51.220;5.308;2022-10-22T18:48:23;15.90;99.90
41471;DHT22;27211;51.220;5.308;2022-10-22T18:50:59;15.70;99.90
41471;DHT22;27211;51.220;5.308;2022-10-22T18:53:25;15.70;99.90
41471;DHT22;27211;51.220;5.308;2022-10-22T18:55:51;15.60;99.90
41471;DHT22;27211;51.220;5.308;2022-10-22T18:58:17;15.50;99.90
41471;DHT22;27211;51.220;5.308;2022-10-22T19:00:46;15.40;99.90
41471;DHT22;27211;51.220;5.308;2022-10-22T19:03:13;15.30;99.90
41471;DHT22;27211;51.220;5.308;2022-10-22T19:05:47;15.30;99.90
41471;DHT22;27211;51.220;5.308;2022-10-22T19:08:14;15.30;99.90
41471;DHT22;27211;51.220;5.308;2022-10-22T19:10:44;15.30;99.90
41471;DHT22;27211;51.220;5.308;2022-10-22T19:13:12;15.20;99.90
41471;DHT22;27211;51.220;5.308;2022-10-22T19:15:39;15.30;99.90
41471;DHT22;27211;51.220;5.308;2022-10-22T19:18:05;15.40;99.90
41471;DHT22;27211;51.220;5.308;2022-10-22T19:20:31;15.40;99.90
41471;DHT22;27211;51.220;5.308;2022-10-22T19:22:56;15.30;99.90
41471;DHT22;27211;51.220;5.308;2022-10-22T19:25:23;15.20;99.90
41471;DHT22;27211;51.220;5.308;2022-10-22T19:27:49;15.40;99.90
41471;DHT22;27211;51.220;5.308;2022-10-22T19:30:15;15.40;99.90
41471;DHT22;27211;51.220;5.308;2022-10-22T19:32:42;15.40;99.90
41471;DHT22;27211;51.220;5.308;2022-10-22T19:35:08;15.20;99.90
41471;DHT22;27211;51.220;5.308;2022-10-22T19:37:34;15.10;99.90
41471;DHT22;27211;51.220;5.308;2022-10-22T19:40:08;15.00;99.90
41471;DHT22;27211;51.220;5.308;2022-10-22T19:42:35;14.90;99.90
41471;DHT22;27211;51.220;5.308;2022-10-22T19:45:08;14.90;99.90
41471;DHT22;27211;51.220;5.308;2022-10-22T19:47:34;14.80;99.90
41471;DHT22;27211;51.220;5.308;2022-10-22T19:49:59;14.80;99.90
41471;DHT22;27211;51.220;5.308;2022-10-22T19:52:25;14.80;99.90
41471;DHT22;27211;51.220;5.308;2022-10-22T19:54:51;14.70;99.90
41471;DHT22;27211;51.220;5.308;2022-10-22T19:57:17;14.80;99.90
41471;DHT22;27211;51.220;5.308;2022-10-22T19:59:44;14.70;99.90
41471;DHT22;27211;51.220;5.308;2022-10-22T20:02:22;14.70;99.90
41471;DHT22;27211;51.220;5.308;2022-10-22T20:04:48;14.70;99.90
41471;DHT22;27211;51.220;5.308;2022-10-22T20:07:14;14.70;99.90
41471;DHT22;27211;51.220;5.308;2022-10-22T20:09:40;14.70;99.90
41471;DHT22;27211;51.220;5.308;2022-10-22T20:12:06;14.70;99.90
41471;DHT22;27211;51.220;5.308;2022-10-22T20:14:32;14.70;99.90
41471;DHT22;27211;51.220;5.308;2022-10-22T20:16:58;14.70;99.90
41471;DHT22;27211;51.220;5.308;2022-10-22T20:19:24;14.70;99.90
41471;DHT22;27211;51.220;5.308;2022-10-22T20:21:53;14.70;99.90
41471;DHT22;27211;51.220;5.308;2022-10-22T20:24:19;14.70;99.90
41471;DHT22;27211;51.220;5.308;2022-10-22T20:26:45;14.70;99.90
41471;DHT22;27211;51.220;5.308;2022-10-22T20:29:13;14.70;99.90
41471;DHT22;27211;51.220;5.308;2022-10-22T20:31:39;14.80;99.90
41471;DHT22;27211;51.220;5.308;2022-10-22T20:34:05;14.70;99.90
41471;DHT22;27211;51.220;5.308;2022-10-22T20:36:31;14.80;99.90
41471;DHT22;27211;51.220;5.308;2022-10-22T20:39:03;14.70;99.90
41471;DHT22;27211;51.220;5.308;2022-10-22T20:41:30;14.60;99.90
41471;DHT22;27211;51.220;5.308;2022-10-22T20:43:58;14.70;99.90
41471;DHT22;27211;51.220;5.308;2022-10-22T20:46:27;14.70;99.90
41471;DHT22;27211;51.220;5.308;2022-10-22T20:48:58;14.70;99.90
41471;DHT22;27211;51.220;5.308;2022-10-22T20:51:24;14.60;99.90
41471;DHT22;27211;51.220;5.308;2022-10-22T20:53:53;14.60;99.90
41471;DHT22;27211;51.220;5.308;2022-10-22T20:56:22;14.60;99.90
41471;DHT22;27211;51.220;5.308;2022-10-22T20:58:49;14.60;99.90
41471;DHT22;27211;51.220;5.308;2022-10-22T21:01:19;14.60;99.90
41471;DHT22;27211;51.220;5.308;2022-10-22T21:03:51;14.70;99.90
41471;DHT22;27211;51.220;5.308;2022-10-22T21:06:18;14.60;99.90
41471;DHT22;27211;51.220;5.308;2022-10-22T21:08:59;14.60;99.90
41471;DHT22;27211;51.220;5.308;2022-10-22T21:11:30;14.60;99.90
41471;DHT22;27211;51.220;5.308;2022-10-22T21:14:18;14.60;99.90
41471;DHT22;27211;51.220;5.308;2022-10-22T21:16:46;14.50;99.90
41471;DHT22;27211;51.220;5.308;2022-10-22T21:19:18;14.60;99.90
41471;DHT22;27211;51.220;5.308;2022-10-22T21:21:45;14.50;99.90
41471;DHT22;27211;51.220;5.308;2022-10-22T21:24:11;14.50;99.90
41471;DHT22;27211;51.220;5.308;2022-10-22T21:26:38;14.50;99.90
41471;DHT22;27211;51.220;5.308;2022-10-22T21:29:06;14.50;99.90
41471;DHT22;27211;51.220;5.308;2022-10-22T21:31:33;14.40;99.90
41471;DHT22;27211;51.220;5.308;2022-10-22T21:33:58;14.40;99.90
41471;DHT22;27211;51.220;5.308;2022-10-22T21:36:26;14.50;99.90
41471;DHT22;27211;51.220;5.308;2022-10-22T21:38:54;14.60;99.90
41471;DHT22;27211;51.220;5.308;2022-10-22T21:41:22;14.50;99.90
41471;DHT22;27211;51.220;5.308;2022-10-22T21:43:49;14.50;99.90
41471;DHT22;27211;51.220;5.308;2022-10-22T21:46:24;14.50;99.90
41471;DHT22;27211;51.220;5.308;2022-10-22T21:48:55;14.50;99.90
41471;DHT22;27211;51.220;5.308;2022-10-22T21:51:22;14.50;99.90
41471;DHT22;27211;51.220;5.308;2022-10-22T21:53:48;14.60;99.90
41471;DHT22;27211;51.220;5.308;2022-10-22T21:56:22;14.50;99.90
41471;DHT22;27211;51.220;5.308;2022-10-22T21:58:54;14.60;99.90
41471;DHT22;27211;51.220;5.308;2022-10-22T22:01:21;14.50;99.90
41471;DHT22;27211;51.220;5.308;2022-10-22T22:03:48;14.50;99.90
41471;DHT22;27211;51.220;5.308;2022-10-22T22:06:19;14.60;99.90
41471;DHT22;27211;51.220;5.308;2022-10-22T22:08:45;15.00;99.90
41471;DHT22;27211;51.220;5.308;2022-10-22T22:11:15;15.40;99.90
41471;DHT22;27211;51.220;5.308;2022-10-22T22:13:42;15.40;99.90
41471;DHT22;27211;51.220;5.308;2022-10-22T22:16:09;15.40;99.90
41471;DHT22;27211;51.220;5.308;2022-10-22T22:18:37;15.40;99.90
41471;DHT22;27211;51.220;5.308;2022-10-22T22:21:06;15.50;99.90
41471;DHT22;27211;51.220;5.308;2022-10-22T22:23:32;15.70;99.90
41471;DHT22;27211;51.220;5.308;2022-10-22T22:26:04;15.80;99.90
41471;DHT22;27211;51.220;5.308;2022-10-22T22:28:31;15.60;99.90
41471;DHT22;27211;51.220;5.308;2022-10-22T22:30:57;15.30;99.90
41471;DHT22;27211;51.220;5.308;2022-10-22T22:33:23;15.20;99.90
41471;DHT22;27211;51.220;5.308;2022-10-22T22:35:49;15.20;99.90
41471;DHT22;27211;51.220;5.308;2022-10-22T22:38:15;15.50;99.90
41471;DHT22;27211;51.220;5.308;2022-10-22T22:40:42;15.60;99.90
41471;DHT22;27211;51.220;5.308;2022-10-22T22:43:09;15.70;99.90
41471;DHT22;27211;51.220;5.308;2022-10-22T22:45:35;15.80;99.90
41471;DHT22;27211;51.220;5.308;2022-10-22T22:48:02;15.70;99.90
41471;DHT22;27211;51.220;5.308;2022-10-22T22:50:29;15.60;99.90
41471;DHT22;27211;51.220;5.308;2022-10-22T22:52:55;15.30;99.90
41471;DHT22;27211;51.220;5.308;2022-10-22T22:55:21;15.30;99.90
41471;DHT22;27211;51.220;5.308;2022-10-22T22:57:47;15.20;99.90
41471;DHT22;27211;51.220;5.308;2022-10-22T23:00:16;15.30;99.90
41471;DHT22;27211;51.220;5.308;2022-10-22T23:02:42;15.20;99.90
41471;DHT22;27211;51.220;5.308;2022-10-22T23:05:08;15.20;99.90
41471;DHT22;27211;51.220;5.308;2022-10-22T23:07:34;15.00;99.90
41471;DHT22;27211;51.220;5.308;2022-10-22T23:09:59;14.90;99.90
41471;DHT22;27211;51.220;5.308;2022-10-22T23:12:25;15.00;99.90
41471;DHT22;27211;51.220;5.308;2022-10-22T23:14:51;15.00;99.90
41471;DHT22;27211;51.220;5.308;2022-10-22T23:17:18;15.10;99.90
41471;DHT22;27211;51.220;5.308;2022-10-22T23:19:44;14.90;99.90
41471;DHT22;27211;51.220;5.308;2022-10-22T23:22:10;14.70;99.90
41471;DHT22;27211;51.220;5.308;2022-10-22T23:24:36;14.60;99.90
41471;DHT22;27211;51.220;5.308;2022-10-22T23:27:03;14.50;99.90
41471;DHT22;27211;51.220;5.308;2022-10-22T23:29:33;14.40;99.90
41471;DHT22;27211;51.220;5.308;2022-10-22T23:32:02;14.40;99.90
41471;DHT22;27211;51.220;5.308;2022-10-22T23:34:29;14.40;99.90
41471;DHT22;27211;51.220;5.308;2022-10-22T23:36:56;14.40;99.90
41471;DHT22;27211;51.220;5.308;2022-10-22T23:39:25;14.40;99.90
41471;DHT22;27211;51.220;5.308;2022-10-22T23:41:52;14.40;99.90
41471;DHT22;27211;51.220;5.308;2022-10-22T23:44:22;14.30;99.90
41471;DHT22;27211;51.220;5.308;2022-10-22T23:46:48;14.30;99.90
41471;DHT22;27211;51.220;5.308;2022-10-22T23:49:14;14.30;99.90
41471;DHT22;27211;51.220;5.308;2022-10-22T23:51:41;14.20;99.90
41471;DHT22;27211;51.220;5.308;2022-10-22T23:54:12;14.10;99.90
41471;DHT22;27211;51.220;5.308;2022-10-22T23:56:38;14.10;99.90
41471;DHT22;27211;51.220;5.308;2022-10-22T23:59:04;14.00;99.90
